Terminal Aerodrome Forecast
Issued by NWS

Home | Current Version | Previous Version | Graphics & Text | Print | Product List | Glossary Off
Versions: 1 2 3 4 5 6 7 8 9 10 11 12 13 14 15 16 17 18

000
FTUS43 KDDC 141000 AAA
TAFHYS
TAF AMD
KHYS 141000Z 1410/1506 01010KT P6SM OVC100
     FM141700 32013KT P6SM BKN070
     FM150100 34010KT P6SM SCT080=

USA.gov is the U.S. government's official web portal to all federal, state and local government web resources and services.